Airfield :







YOU CAN JOIN US ON...

 
LOGIN :

Register | Disclaimer

   EN    FR    IT 

 









Legend :    VFR   Marginal VFR   IFR   Intensive IFR   Very Intensive IFR
Visi :
Ceiling :
>= 8 km
>= 3000ft
5 to 8 km
1000 to 3000 ft
1500m to 5 km
500 to 1000 ft
800 to 1500m
200 to 500 ft
< 800m
< 200 ft
Symbols :   Thunderstorms  Fog  Heavy snow  Heavy precipitations  Wind > 20 kt






- Airport Elevation : 1663 ft
- IATA code : SLK


KSLK - Adirondack Regional

CURRENT METAR :
  • 151216Z AUTO 25012G19KT 200V270 1 1/2SM -SN BR BKN012 OVC018 M01/M03 A2937 RMK AO2 P0000 T10061028

EXPIRED METARs :
  • 151159Z AUTO 26010G21KT 2SM -SN BR BKN013 OVC018 M01/M03 A2936 RMK AO2 P0000 T10061028
  • 151127Z AUTO 26011G21KT 2 1/2SM -SN BR OVC011 M01/M03 A2934 RMK AO2 PK WND 24027/1102 P0001 T10061028
  • 151116Z AUTO 26012G21KT 1 3/4SM -SN BR BKN011 OVC014 M01/M03 A2934 RMK AO2 PK WND 24027/1102 CIG 007V012 P0001 T10061028
  • 151105Z AUTO 26011G27KT 1 3/4SM -SN BR BKN009 OVC013 M01/M03 A2933 RMK AO2 PK WND 24027/1102 P0000 T10061028
  • 151008Z AUTO 24010G22KT 5SM -SN BR OVC009 M01/M03 A2928 RMK AO2 P0000 T10111028
  • 150951Z AUTO 25010G26KT 210V270 6SM -SN BR OVC010 M01/M03 A2926 RMK AO2 PK WND 26030/0859 CIG 008V013 PRESRR SLP921 P0000 T10111028

TAF KSLK
Valid from the 15 at 12:00 until the 16 at 12:00 UTC


151133Z 1512/1612 26018G28KT 4SM -SHSN BR OVC012
TEMPO 1512/1516 2SM -SHSN BR OVC008
FM151600 26018G30KT 2SM -SHSN OVC010
FM152200 27015G25KT P6SM VCSH BKN030
FM160000 27010KT P6SM BKN030
FM160400 26011KT P6SM FEW035



MET'MAP, your aeronautical weather chart ! - Copyright ORBIFLY December 2007 - Disclaimer

ORBIFLY MET'MAP TEAM :

Programming & Development : Alexandra Zaïnal
Concept & original design : Baudouin d'Aumeries
Assistance for programming : Marc-Olivier Méhu
Technical & hardware support : Manuel Goepfert

Contact : metmap@orbifly.com




SOURCES & CREDITS :

   NOAA